Terminal Aerodrome Forecast
Issued by NWS Shreveport, LA

Home | Current Version | Previous Version | Text Only | Print | Product List | Glossary On
Versions: 1 2 3 4 5 6 7 8 9 10 11 12 13 14 15 16 17 18 19 20 21 22 23 24 25 26 27 28 29 30 31 32 33 34 35
100
FTUS44 KSHV 282005 AAC
TAFSHV
TAF AMD
KSHV 282005Z 2820/2918 25006KT P6SM BKN035 OVC150
      TEMPO 2820/2821 P6SM -TSRA BKN035CB OVC090
     FM290200 18004KT P6SM SCT060 BKN150 BKN250
     FM290800 18004KT P6SM SCT120 BKN250
     FM291500 25008KT P6SM OVC250=

USA.gov is the U.S. government's official web portal to all federal, state and local government web resources and services.